Time;durP1;ratioP1;P1;durP2;ratioP2;P2;SDS_P1;SDS_P2;PMS_P1;PMS_P2;Temp;Humidity;BMP_temperature;BMP_pressure;BME280_temperature;BME280_humidity;BME280_pressure;Samples;Min_cycle;Max_cycle;Signal;HPM_P1;HPM_P2
2023/06/19 00:01:17;;;;;;;11.80;9.82;;;;;;;22.56;56.31;98393.00;5007476;28;20533;-81
2023/06/19 00:03:42;;;;;;;10.95;9.80;;;;;;;22.60;56.58;98402.09;4993563;28;20030;-81
2023/06/19 00:06:08;;;;;;;12.85;9.82;;;;;;;22.68;56.69;98397.69;4997601;28;20068;-81
2023/06/19 00:08:34;;;;;;;12.88;9.95;;;;;;;22.65;56.13;98392.94;5009465;28;20029;-82
2023/06/19 00:10:59;;;;;;;10.70;9.02;;;;;;;22.67;56.19;98393.38;5012235;28;20092;-82
2023/06/19 00:13:25;;;;;;;10.95;9.85;;;;;;;22.57;56.46;98396.50;4996009;28;20532;-82
2023/06/19 00:15:50;;;;;;;12.43;9.73;;;;;;;22.51;56.21;98376.09;5009514;28;20026;-82
2023/06/19 00:18:17;;;;;;;10.90;9.80;;;;;;;22.51;56.56;98395.94;5003976;28;20109;-82
2023/06/19 00:20:45;;;;;;;10.07;9.13;;;;;;;22.44;56.54;98382.09;4993834;28;20109;-82
2023/06/19 00:23:13;;;;;;;11.07;9.98;;;;;;;22.51;56.26;98382.34;4993958;28;20120;-82
2023/06/19 00:25:40;;;;;;;10.60;9.45;;;;;;;22.48;56.02;98368.59;5001128;28;20030;-82
2023/06/19 00:28:13;;;;;;;12.73;8.65;;;;;;;22.37;56.20;98368.25;5002500;28;20442;-82
2023/06/19 00:30:38;;;;;;;10.25;9.15;;;;;;;22.44;56.08;98375.84;5000610;28;20030;-82
2023/06/19 00:33:05;;;;;;;11.98;9.52;;;;;;;22.45;56.06;98372.00;5015760;28;20038;-81
2023/06/19 00:35:30;;;;;;;12.60;9.70;;;;;;;22.41;56.24;98365.66;5003923;28;20037;-82
2023/06/19 00:37:56;;;;;;;10.30;9.23;;;;;;;22.34;56.35;98363.50;4997589;28;20041;-81
2023/06/19 00:40:27;;;;;;;13.80;9.73;;;;;;;22.39;56.30;98347.75;4996898;28;20233;-82
2023/06/19 00:42:53;;;;;;;9.50;8.60;;;;;;;22.29;56.33;98350.91;4999964;28;20381;-82
2023/06/19 00:45:18;;;;;;;10.35;9.07;;;;;;;22.24;56.50;98353.03;5002505;28;20030;-80
2023/06/19 00:47:44;;;;;;;12.40;10.43;;;;;;;22.27;56.68;98358.59;5006319;28;20045;-80
2023/06/19 00:50:10;;;;;;;13.98;9.98;;;;;;;22.22;56.80;98368.88;5005263;28;20033;-80
2023/06/19 00:52:36;;;;;;;12.80;9.88;;;;;;;22.23;56.39;98360.41;5008915;28;20034;-80
2023/06/19 00:55:03;;;;;;;15.23;10.13;;;;;;;22.13;56.47;98352.66;5008165;28;20038;-81
2023/06/19 00:57:30;;;;;;;10.38;9.23;;;;;;;22.15;56.49;98357.75;5005589;28;20049;-81
2023/06/19 00:59:56;;;;;;;10.95;8.77;;;;;;;22.10;56.32;98339.75;5005553;28;20056;-81
2023/06/19 01:02:23;;;;;;;10.80;9.73;;;;;;;22.11;56.29;98354.13;4985554;28;20453;-81
2023/06/19 01:04:53;;;;;;;10.13;9.13;;;;;;;22.08;55.93;98338.50;5002806;28;20040;-81
2023/06/19 01:07:42;;;;;;;11.82;9.27;;;;;;;22.15;56.17;98347.69;5002910;28;20027;-81
2023/06/19 01:10:13;;;;;;;10.32;9.23;;;;;;;22.03;56.15;98350.38;5007559;28;20457;-81
2023/06/19 01:12:48;;;;;;;10.45;9.05;;;;;;;22.01;56.23;98355.34;5003703;28;20025;-81
2023/06/19 01:15:14;;;;;;;9.93;8.93;;;;;;;21.93;56.34;98353.50;5002457;28;20123;-81
2023/06/19 01:17:40;;;;;;;9.20;8.30;;;;;;;21.91;56.50;98352.28;5002640;28;20528;-81
2023/06/19 01:20:10;;;;;;;9.15;8.15;;;;;;;21.95;56.25;98367.53;5002971;28;20041;-81
2023/06/19 01:22:36;;;;;;;10.63;9.23;;;;;;;21.89;56.49;98366.16;4988214;28;20504;-81
2023/06/19 01:25:03;;;;;;;9.35;8.40;;;;;;;21.89;56.44;98354.50;5007504;28;20029;-81
2023/06/19 01:27:31;;;;;;;9.45;8.48;;;;;;;21.96;56.49;98361.00;5006437;28;20034;-81
2023/06/19 01:29:59;;;;;;;9.35;7.97;;;;;;;22.04;56.05;98351.94;4991832;28;20482;-81
2023/06/19 01:32:36;;;;;;;9.85;8.85;;;;;;;22.07;55.91;98351.28;5020933;28;20033;-81
2023/06/19 01:35:04;;;;;;;10.32;8.90;;;;;;;21.95;56.29;98337.66;5006413;28;20075;-80
2023/06/19 01:37:33;;;;;;;9.15;7.78;;;;;;;21.90;56.77;98328.94;5007040;28;20620;-80
2023/06/19 01:39:59;;;;;;;10.88;9.07;;;;;;;21.90;56.85;98346.03;5003981;28;20163;-81
2023/06/19 01:42:26;;;;;;;10.07;9.07;;;;;;;21.95;57.42;98359.38;5016774;28;20044;-80
2023/06/19 01:44:53;;;;;;;11.18;9.93;;;;;;;21.91;57.66;98352.28;5002901;28;20549;-80
2023/06/19 01:47:19;;;;;;;12.18;9.52;;;;;;;21.81;58.11;98345.28;5002096;28;20036;-81
2023/06/19 01:49:48;;;;;;;10.68;8.82;;;;;;;21.77;58.41;98347.09;5008051;28;20042;-81
2023/06/19 01:52:14;;;;;;;9.18;8.27;;;;;;;21.88;57.98;98356.44;4987613;28;20041;-80
2023/06/19 01:54:40;;;;;;;11.73;9.18;;;;;;;21.82;57.99;98356.94;5000839;28;20129;-81
2023/06/19 01:57:06;;;;;;;10.10;9.10;;;;;;;21.82;58.27;98357.72;5005961;28;20030;-81
2023/06/19 01:59:31;;;;;;;10.25;8.77;;;;;;;21.79;58.28;98357.59;5004188;28;20034;-80
2023/06/19 02:01:57;;;;;;;10.43;9.32;;;;;;;21.53;58.94;98347.75;5001821;28;20101;-80
2023/06/19 02:04:22;;;;;;;11.13;8.65;;;;;;;21.08;61.80;98351.44;4999858;28;20033;-80
2023/06/19 02:06:47;;;;;;;10.88;9.77;;;;;;;21.05;61.24;98354.81;5004674;28;20767;-81
2023/06/19 02:09:13;;;;;;;9.27;8.38;;;;;;;21.67;59.15;98338.56;5006432;28;20032;-81
2023/06/19 02:11:38;;;;;;;10.57;9.10;;;;;;;21.76;58.90;98342.75;5001917;28;20033;-81
2023/06/19 02:14:04;;;;;;;11.50;9.15;;;;;;;21.78;58.77;98339.69;4999438;28;20033;-80
2023/06/19 02:16:30;;;;;;;9.57;8.13;;;;;;;21.72;59.07;98328.25;5001085;28;20036;-81
2023/06/19 02:18:56;;;;;;;11.10;8.63;;;;;;;21.73;58.95;98331.78;5002644;28;22072;-81
2023/06/19 02:21:22;;;;;;;11.50;8.93;;;;;;;21.73;59.36;98326.34;5003150;28;20385;-81
2023/06/19 02:23:47;;;;;;;12.18;9.77;;;;;;;21.65;59.39;98317.13;5001368;28;20044;-81
2023/06/19 02:26:12;;;;;;;9.63;8.63;;;;;;;21.70;59.42;98327.00;5003293;28;20152;-81
2023/06/19 02:28:38;;;;;;;11.27;9.10;;;;;;;21.58;59.62;98320.38;4985037;28;20033;-81
2023/06/19 02:31:03;;;;;;;12.45;9.48;;;;;;;21.56;59.99;98325.34;5003552;28;20036;-82
2023/06/19 02:33:29;;;;;;;10.45;9.18;;;;;;;21.63;59.91;98322.09;4986686;28;20175;-81
2023/06/19 02:35:58;;;;;;;10.95;8.73;;;;;;;21.55;60.53;98309.41;5002044;28;20375;-80
2023/06/19 02:38:24;;;;;;;10.25;9.20;;;;;;;21.56;60.67;98310.97;5001509;28;20030;-81
2023/06/19 02:40:50;;;;;;;11.18;9.32;;;;;;;21.49;60.72;98295.22;5003745;28;20765;-80
2023/06/19 02:43:15;;;;;;;11.40;9.35;;;;;;;21.58;60.58;98297.84;5002410;28;20029;-81
2023/06/19 02:45:41;;;;;;;10.57;9.32;;;;;;;21.55;60.68;98298.53;5005214;28;20061;-81
2023/06/19 02:48:06;;;;;;;10.27;9.18;;;;;;;21.56;60.40;98306.34;5003826;28;20029;-81
2023/06/19 02:50:32;;;;;;;10.65;9.45;;;;;;;21.51;60.79;98313.91;5006205;28;20172;-81
2023/06/19 02:52:57;;;;;;;11.25;10.05;;;;;;;21.50;60.69;98301.44;5003768;28;20037;-81
2023/06/19 02:55:22;;;;;;;15.77;8.63;;;;;;;21.39;60.91;98305.69;5003225;28;21438;-80
2023/06/19 02:57:48;;;;;;;10.80;9.70;;;;;;;21.43;61.19;98315.56;4986415;28;20040;-81
2023/06/19 03:00:14;;;;;;;10.00;8.65;;;;;;;21.42;60.93;98305.03;5002953;28;20543;-81
2023/06/19 03:02:42;;;;;;;11.23;9.23;;;;;;;21.42;60.80;98321.34;5002342;28;20029;-81
2023/06/19 03:05:08;;;;;;;9.88;8.88;;;;;;;21.39;60.46;98311.13;4982277;28;20651;-81
2023/06/19 03:07:34;;;;;;;9.95;8.95;;;;;;;21.43;59.94;98321.00;5002842;28;20120;-81
2023/06/19 03:09:59;;;;;;;10.70;8.75;;;;;;;21.35;59.69;98313.72;5007212;28;20038;-81
2023/06/19 03:12:24;;;;;;;10.00;9.00;;;;;;;21.35;59.40;98318.34;5006133;28;20164;-81
2023/06/19 03:14:50;;;;;;;10.48;8.55;;;;;;;21.41;59.23;98319.72;5008415;28;20093;-81
2023/06/19 03:17:15;;;;;;;12.60;9.45;;;;;;;21.41;59.05;98327.88;5008449;28;20064;-81
2023/06/19 03:19:40;;;;;;;10.32;9.05;;;;;;;21.32;59.17;98319.78;5013753;28;20455;-81
2023/06/19 03:22:06;;;;;;;10.80;9.45;;;;;;;21.47;58.80;98329.28;5006468;28;20087;-81
2023/06/19 03:24:31;;;;;;;10.77;9.68;;;;;;;21.46;58.74;98335.84;4997076;28;21938;-81
2023/06/19 03:26:56;;;;;;;10.57;9.35;;;;;;;21.35;58.10;98321.88;5004793;28;20034;-81
2023/06/19 03:29:22;;;;;;;10.73;9.60;;;;;;;21.36;58.45;98322.66;4988573;28;20034;-80
2023/06/19 03:31:47;;;;;;;11.60;8.85;;;;;;;21.39;58.48;98316.56;4973727;28;20168;-81
2023/06/19 03:34:12;;;;;;;11.70;9.05;;;;;;;21.45;58.27;98323.38;4993712;28;20129;-81
2023/06/19 03:36:38;;;;;;;10.52;9.00;;;;;;;21.45;58.38;98323.38;5005728;28;20030;-81
2023/06/19 03:39:04;;;;;;;10.23;9.05;;;;;;;21.41;57.96;98314.31;5005321;28;20125;-81
2023/06/19 03:41:29;;;;;;;11.38;8.98;;;;;;;21.36;58.17;98309.09;5006069;28;20029;-81
2023/06/19 03:43:55;;;;;;;10.65;9.55;;;;;;;21.38;58.48;98315.75;4989423;28;20128;-81
2023/06/19 03:46:20;;;;;;;12.10;9.25;;;;;;;21.39;58.58;98324.69;5000460;28;20030;-79
2023/06/19 03:48:45;;;;;;;11.75;8.85;;;;;;;21.40;58.83;98334.44;5000815;28;20030;-80
2023/06/19 03:51:11;;;;;;;10.13;8.63;;;;;;;21.44;59.03;98333.47;5000248;28;26377;-80
2023/06/19 03:53:36;;;;;;;10.93;8.95;;;;;;;21.37;59.05;98327.75;5001913;28;20033;-80
2023/06/19 03:56:02;;;;;;;10.80;9.73;;;;;;;21.34;59.28;98325.69;5000753;28;20099;-80
2023/06/19 03:58:27;;;;;;;11.48;9.40;;;;;;;21.33;59.75;98328.75;5005393;28;20038;-80
2023/06/19 04:00:52;;;;;;;12.68;9.15;;;;;;;21.35;59.78;98330.00;4992890;28;20508;-80
2023/06/19 04:03:18;;;;;;;12.52;9.43;;;;;;;21.31;60.03;98331.81;5007698;28;20593;-80
2023/06/19 04:05:43;;;;;;;12.07;9.35;;;;;;;21.30;60.35;98332.09;5001554;28;20030;-80
2023/06/19 04:08:09;;;;;;;13.40;10.05;;;;;;;21.24;60.34;98325.28;5005787;28;20037;-80
2023/06/19 04:10:34;;;;;;;14.18;9.63;;;;;;;21.26;60.38;98328.47;5001209;28;20034;-80
2023/06/19 04:12:59;;;;;;;10.88;9.80;;;;;;;21.23;59.85;98324.50;4987061;28;20034;-80
2023/06/19 04:15:25;;;;;;;10.57;9.32;;;;;;;21.25;60.16;98324.94;4988448;28;20034;-80
2023/06/19 04:17:50;;;;;;;12.85;10.13;;;;;;;21.23;60.53;98329.91;5003295;28;20033;-80
2023/06/19 04:20:16;;;;;;;11.23;9.80;;;;;;;21.26;61.03;98325.75;5008745;28;20481;-80
2023/06/19 04:22:41;;;;;;;13.25;9.20;;;;;;;21.27;60.50;98324.66;5006231;28;20037;-80
2023/06/19 04:25:08;;;;;;;12.95;10.45;;;;;;;21.29;60.95;98327.81;5009801;28;20029;-80
2023/06/19 04:27:34;;;;;;;11.10;9.55;;;;;;;21.23;61.56;98315.56;5014670;28;20045;-80
2023/06/19 04:30:00;;;;;;;11.57;10.35;;;;;;;21.24;61.26;98326.09;5001220;28;20041;-80
2023/06/19 04:32:26;;;;;;;11.27;10.07;;;;;;;21.19;61.43;98325.47;5008025;28;20038;-80
2023/06/19 04:34:51;;;;;;;10.77;9.27;;;;;;;21.04;61.83;98326.06;4971740;28;20049;-81
2023/06/19 04:37:19;;;;;;;10.27;9.27;;;;;;;21.09;61.71;98334.03;5003957;28;20065;-82
2023/06/19 04:39:45;;;;;;;13.65;9.80;;;;;;;21.14;61.67;98341.97;5003092;28;20022;-81
2023/06/19 04:42:19;;;;;;;10.25;9.07;;;;;;;21.16;61.51;98335.09;4999914;28;20029;-81
2023/06/19 04:44:45;;;;;;;11.13;9.82;;;;;;;21.18;61.42;98334.75;5000853;28;20495;-81
2023/06/19 04:47:10;;;;;;;11.38;9.55;;;;;;;21.12;62.18;98344.22;5005465;28;20045;-81
2023/06/19 04:49:36;;;;;;;10.40;9.38;;;;;;;21.09;62.00;98326.69;5008331;28;20034;-81
2023/06/19 04:52:01;;;;;;;11.60;8.93;;;;;;;21.11;61.95;98331.78;5010807;28;20030;-82
2023/06/19 04:54:26;;;;;;;14.00;10.02;;;;;;;21.11;62.07;98338.00;5000543;28;20524;-82
2023/06/19 04:56:53;;;;;;;11.40;9.35;;;;;;;21.17;61.98;98336.69;4992438;28;20533;-82
2023/06/19 04:59:18;;;;;;;11.80;10.05;;;;;;;21.16;61.83;98334.31;5007522;28;20093;-82
2023/06/19 05:01:44;;;;;;;12.13;10.38;;;;;;;21.15;61.91;98338.94;5008884;28;20073;-82
2023/06/19 05:04:11;;;;;;;10.82;9.73;;;;;;;21.30;61.73;98342.97;5008571;28;20042;-83
2023/06/19 05:06:36;;;;;;;12.32;9.18;;;;;;;21.31;61.50;98337.22;4990392;28;20030;-84
2023/06/19 05:09:02;;;;;;;10.65;9.55;;;;;;;21.32;61.67;98344.22;5038771;22;20043;-76
2023/06/19 05:11:28;;;;;;;12.50;10.70;;;;;;;21.41;61.46;98344.97;4964052;28;20039;-76
2023/06/19 05:13:53;;;;;;;11.23;9.95;;;;;;;21.40;61.28;98356.97;4968568;28;20412;-76
2023/06/19 05:16:19;;;;;;;11.90;9.38;;;;;;;21.41;60.73;98357.75;4963361;28;20038;-76
2023/06/19 05:18:45;;;;;;;10.05;9.05;;;;;;;21.32;61.14;98340.72;4968602;28;20034;-75
2023/06/19 05:21:11;;;;;;;20.80;10.50;;;;;;;21.29;61.32;98349.53;4970292;28;20031;-76
2023/06/19 05:23:38;;;;;;;10.77;9.00;;;;;;;21.26;61.15;98350.19;4968970;28;20458;-76
2023/06/19 05:26:03;;;;;;;15.20;10.27;;;;;;;21.23;61.00;98350.88;4968898;28;20062;-76
2023/06/19 05:28:29;;;;;;;15.68;10.63;;;;;;;21.17;61.13;98346.72;4970614;28;20038;-75
2023/06/19 05:30:54;;;;;;;12.13;10.30;;;;;;;21.17;61.54;98368.44;4969258;28;20109;-75
2023/06/19 05:33:19;;;;;;;10.73;9.63;;;;;;;21.17;61.12;98352.97;4973988;28;20062;-75
2023/06/19 05:35:51;;;;;;;13.40;10.13;;;;;;;21.19;61.18;98371.63;4968358;28;20065;-75
2023/06/19 05:38:16;;;;;;;12.82;9.73;;;;;;;21.20;61.34;98371.31;4966384;28;20038;-75
2023/06/19 05:40:42;;;;;;;13.55;10.13;;;;;;;21.30;60.94;98375.53;4968879;28;20038;-75
2023/06/19 05:43:07;;;;;;;10.55;9.52;;;;;;;21.05;60.98;98377.31;4965663;28;20121;-75
2023/06/19 05:45:32;;;;;;;10.68;9.57;;;;;;;21.17;61.01;98390.16;4960913;28;20034;-75
2023/06/19 05:47:58;;;;;;;15.40;10.43;;;;;;;21.06;61.07;98395.16;4964368;28;20062;-76
2023/06/19 05:50:23;;;;;;;12.95;10.02;;;;;;;21.01;60.92;98394.53;4973343;28;20022;-75
2023/06/19 05:52:49;;;;;;;14.50;10.20;;;;;;;21.07;60.60;98394.06;4970428;28;20528;-76
2023/06/19 05:55:14;;;;;;;10.68;9.57;;;;;;;20.99;61.28;98411.13;4968835;28;20033;-76
2023/06/19 05:57:39;;;;;;;11.77;10.10;;;;;;;20.99;61.30;98410.38;4965630;28;20119;-76
2023/06/19 06:00:06;;;;;;;11.32;9.85;;;;;;;21.04;60.71;98413.72;4960641;28;20441;-75
2023/06/19 06:02:32;;;;;;;12.40;10.15;;;;;;;21.03;61.10;98428.41;4968378;28;20035;-76
2023/06/19 06:04:57;;;;;;;11.18;9.98;;;;;;;21.12;60.08;98412.84;4966318;28;20088;-76
2023/06/19 06:07:22;;;;;;;12.90;10.18;;;;;;;21.19;60.31;98421.28;4960305;28;20047;-76
2023/06/19 06:09:48;;;;;;;11.27;9.60;;;;;;;21.23;60.06;98424.94;4960859;28;20029;-75
2023/06/19 06:12:13;;;;;;;12.27;10.05;;;;;;;21.38;59.51;98429.78;4965731;28;20378;-76
2023/06/19 06:14:40;;;;;;;12.63;9.40;;;;;;;21.32;59.75;98420.25;4958304;28;20035;-75
2023/06/19 06:17:06;;;;;;;11.50;10.02;;;;;;;21.40;59.78;98434.91;4961671;28;20512;-76
2023/06/19 06:19:31;;;;;;;12.93;9.68;;;;;;;21.47;59.83;98435.19;4967264;28;20023;-76
2023/06/19 06:21:56;;;;;;;12.88;9.45;;;;;;;21.55;59.19;98423.47;4966282;28;20117;-76
2023/06/19 06:24:22;;;;;;;10.85;9.43;;;;;;;21.56;59.78;98430.47;4971058;28;20088;-76
2023/06/19 06:26:47;;;;;;;11.90;9.25;;;;;;;21.64;59.06;98430.41;4961331;28;20157;-76
2023/06/19 06:29:12;;;;;;;11.18;9.80;;;;;;;21.72;58.92;98438.84;4962879;28;20105;-76
2023/06/19 06:31:38;;;;;;;10.65;9.45;;;;;;;21.80;58.91;98430.63;4966641;28;20043;-76
2023/06/19 06:34:04;;;;;;;11.10;9.98;;;;;;;21.84;59.20;98425.38;4966299;28;20452;-76
2023/06/19 06:36:29;;;;;;;10.30;9.20;;;;;;;21.94;58.88;98425.75;4982543;28;20173;-76
2023/06/19 06:38:54;;;;;;;13.52;10.25;;;;;;;22.05;58.30;98435.09;4967835;28;20035;-76
2023/06/19 06:41:20;;;;;;;10.00;8.98;;;;;;;22.08;58.51;98425.50;4965556;28;20034;-75
2023/06/19 06:43:45;;;;;;;10.80;9.75;;;;;;;22.14;58.05;98440.47;4963786;28;20738;-76
2023/06/19 06:46:11;;;;;;;11.18;10.10;;;;;;;22.01;60.53;98436.09;4956943;28;20615;-75
2023/06/19 06:48:37;;;;;;;9.93;8.73;;;;;;;22.09;58.43;98430.59;4969976;28;20056;-75
2023/06/19 06:51:02;;;;;;;11.95;10.43;;;;;;;22.11;58.64;98425.59;4965134;28;20035;-75
2023/06/19 06:53:28;;;;;;;11.05;9.82;;;;;;;22.27;57.70;98434.75;4963098;28;20035;-76
2023/06/19 06:55:57;;;;;;;11.07;10.00;;;;;;;22.30;58.20;98433.28;4968851;28;20054;-76
2023/06/19 06:58:23;;;;;;;13.50;9.90;;;;;;;22.35;57.99;98436.56;4965024;28;20032;-76
2023/06/19 07:00:50;;;;;;;12.30;9.43;;;;;;;22.25;58.62;98423.41;4965400;28;20050;-75
2023/06/19 07:03:16;;;;;;;13.23;10.18;;;;;;;22.47;58.67;98449.44;4963660;28;20126;-76
2023/06/19 07:05:41;;;;;;;14.60;10.23;;;;;;;22.36;57.31;98434.66;4966222;28;20181;-76
2023/06/19 07:08:07;;;;;;;14.43;11.65;;;;;;;22.23;58.99;98435.75;4965029;28;20085;-76
2023/06/19 07:10:32;;;;;;;10.02;9.02;;;;;;;22.50;57.51;98440.56;4964911;28;20089;-76
2023/06/19 07:12:57;;;;;;;15.38;9.15;;;;;;;22.78;57.16;98435.34;4961898;28;20071;-75
2023/06/19 07:15:22;;;;;;;13.00;10.77;;;;;;;22.64;58.34;98443.03;4969582;28;20035;-75
2023/06/19 07:17:48;;;;;;;10.82;9.55;;;;;;;22.72;57.87;98447.56;4962753;28;20490;-75
2023/06/19 07:20:14;;;;;;;11.30;9.18;;;;;;;22.77;57.44;98441.91;4966841;28;20560;-76
2023/06/19 07:22:41;;;;;;;11.85;9.65;;;;;;;22.91;57.05;98439.69;4960588;28;20036;-76
2023/06/19 07:25:07;;;;;;;11.55;10.27;;;;;;;22.87;56.98;98444.19;4962188;28;20058;-76
2023/06/19 07:27:32;;;;;;;12.90;10.80;;;;;;;22.73;59.58;98438.28;4965383;28;20110;-75
2023/06/19 07:29:58;;;;;;;10.70;9.05;;;;;;;22.83;60.92;98433.19;4967980;28;20397;-76
2023/06/19 07:32:23;;;;;;;11.30;10.15;;;;;;;22.88;58.90;98434.91;4962210;28;20035;-75
2023/06/19 07:34:49;;;;;;;14.65;10.75;;;;;;;22.95;58.41;98433.22;4966636;28;20031;-76
2023/06/19 07:37:17;;;;;;;11.43;9.68;;;;;;;23.09;57.19;98441.84;4966386;28;20035;-75
2023/06/19 07:39:47;;;;;;;11.70;9.52;;;;;;;23.02;57.31;98435.38;4966827;28;20026;-75
2023/06/19 07:42:16;;;;;;;11.35;10.15;;;;;;;23.11;57.10;98441.50;4963942;28;20564;-76
2023/06/19 07:44:43;;;;;;;10.85;9.75;;;;;;;23.27;58.18;98444.34;4966263;28;21595;-76
2023/06/19 07:47:08;;;;;;;17.17;11.05;;;;;;;23.11;58.11;98436.03;4965640;28;20435;-76
2023/06/19 07:49:35;;;;;;;12.23;10.55;;;;;;;23.25;57.66;98452.84;4960435;28;20015;-76
2023/06/19 07:52:00;;;;;;;12.43;11.23;;;;;;;23.18;58.85;98452.63;4957040;28;20043;-76
2023/06/19 07:54:26;;;;;;;11.45;10.25;;;;;;;23.44;57.08;98452.28;5003098;23;20043;-82
2023/06/19 07:56:51;;;;;;;10.98;9.88;;;;;;;23.53;56.48;98439.34;4990586;28;20034;-82
2023/06/19 07:59:17;;;;;;;14.63;10.57;;;;;;;23.47;58.50;98444.25;4993370;28;20026;-83
2023/06/19 08:01:43;;;;;;;12.40;10.98;;;;;;;23.27;60.04;98433.44;4987617;28;20030;-82
2023/06/19 08:04:09;;;;;;;15.10;11.13;;;;;;;23.46;58.39;98441.88;4993242;28;20049;-82
2023/06/19 08:06:34;;;;;;;11.45;9.90;;;;;;;23.66;56.62;98439.00;4976528;28;20030;-83
2023/06/19 08:08:59;;;;;;;13.15;10.13;;;;;;;23.73;56.54;98447.38;4972346;28;20030;-82
2023/06/19 08:11:25;;;;;;;14.02;9.88;;;;;;;24.05;55.54;98442.13;4959704;28;20114;-82
2023/06/19 08:13:50;;;;;;;12.35;10.95;;;;;;;24.05;59.17;98448.34;4992266;28;20038;-82
2023/06/19 08:16:19;;;;;;;13.55;11.15;;;;;;;24.00;56.41;98445.03;4976478;28;20114;-82
2023/06/19 08:18:45;;;;;;;16.02;11.63;;;;;;;23.95;59.00;98442.56;4973661;28;20026;-82
2023/06/19 08:21:10;;;;;;;13.75;11.48;;;;;;;23.81;58.45;98453.81;4991066;28;20049;-82
2023/06/19 08:23:37;;;;;;;13.80;10.38;;;;;;;24.18;57.83;98443.66;4990270;28;20034;-82
2023/06/19 08:26:03;;;;;;;14.30;10.98;;;;;;;24.00;59.96;98431.41;4992962;28;20038;-82
2023/06/19 08:28:31;;;;;;;15.52;11.65;;;;;;;23.93;58.22;98442.91;4989780;28;20033;-83
2023/06/19 08:30:57;;;;;;;12.82;10.98;;;;;;;23.90;58.83;98442.78;4968607;28;20165;-82
2023/06/19 08:33:23;;;;;;;19.30;10.52;;;;;;;24.22;58.88;98442.59;4992290;28;20049;-82
2023/06/19 08:35:48;;;;;;;15.10;11.88;;;;;;;24.10;58.57;98444.56;4988496;28;20470;-82
2023/06/19 08:38:13;;;;;;;12.73;11.48;;;;;;;24.06;58.18;98449.13;4971163;28;20134;-82
2023/06/19 08:40:43;;;;;;;19.70;12.00;;;;;;;24.08;58.89;98450.38;4985352;28;20018;-82
2023/06/19 08:43:09;;;;;;;12.43;10.32;;;;;;;24.65;56.17;98450.00;4999805;28;20041;-82
2023/06/19 08:45:35;;;;;;;11.38;9.88;;;;;;;25.01;57.26;98451.75;4994125;28;20026;-82
2023/06/19 08:48:03;;;;;;;12.77;11.48;;;;;;;24.63;55.86;98459.69;4986718;28;20061;-82
2023/06/19 08:50:32;;;;;;;11.77;10.40;;;;;;;24.77;56.03;98449.19;4986869;28;20510;-82
2023/06/19 08:52:58;;;;;;;14.25;10.88;;;;;;;25.12;55.08;98450.03;4981849;28;20117;-82
2023/06/19 08:55:23;;;;;;;11.18;9.85;;;;;;;25.34;54.61;98454.88;4989729;28;20129;-82
2023/06/19 08:57:50;;;;;;;10.45;9.38;;;;;;;25.35;54.26;98445.56;4985405;28;20034;-83
2023/06/19 09:00:26;;;;;;;11.70;10.45;;;;;;;25.37;55.96;98451.44;4991236;28;20537;-83
2023/06/19 09:02:57;;;;;;;11.15;10.00;;;;;;;25.55;54.16;98447.22;4993390;28;20053;-83
2023/06/19 09:05:23;;;;;;;10.57;9.63;;;;;;;25.72;52.88;98446.03;4993642;28;20037;-83
2023/06/19 09:08:02;;;;;;;12.07;10.13;;;;;;;25.79;52.65;98449.72;4993792;28;20031;-83
2023/06/19 09:10:28;;;;;;;11.07;9.98;;;;;;;25.86;54.48;98449.06;4987411;28;20557;-82
2023/06/19 09:13:01;;;;;;;11.50;10.30;;;;;;;25.96;52.36;98451.25;4968015;28;20038;-82
2023/06/19 09:15:29;;;;;;;10.45;9.45;;;;;;;25.93;52.70;98450.00;4985998;28;20030;-82
2023/06/19 09:18:20;;;;;;;10.00;9.10;;;;;;;26.08;53.08;98458.53;4987854;28;20081;-82
2023/06/19 09:20:47;;;;;;;10.63;9.43;;;;;;;26.09;52.17;98449.19;4980198;28;20046;-82
2023/06/19 09:23:13;;;;;;;11.93;10.73;;;;;;;26.01;52.60;98459.16;4972882;28;20038;-82
2023/06/19 09:25:49;;;;;;;11.60;10.15;;;;;;;26.06;53.00;98445.19;4988262;28;20046;-82
2023/06/19 09:28:23;;;;;;;10.32;8.85;;;;;;;26.22;51.85;98447.88;4989341;28;20478;-82
2023/06/19 09:30:53;;;;;;;11.05;8.95;;;;;;;26.36;51.94;98446.25;5004739;28;20022;-83
2023/06/19 09:33:18;;;;;;;10.10;9.20;;;;;;;26.39;51.92;98445.50;4966812;28;20072;-83
2023/06/19 09:35:43;;;;;;;9.98;9.00;;;;;;;26.57;51.47;98463.06;4984234;28;20057;-83
2023/06/19 09:38:11;;;;;;;10.02;9.13;;;;;;;26.59;51.34;98447.06;4987054;28;20052;-83
2023/06/19 09:40:37;;;;;;;10.30;9.32;;;;;;;26.68;51.39;98458.56;4951780;28;20050;-83
2023/06/19 09:43:04;;;;;;;10.35;9.32;;;;;;;26.53;53.09;98445.78;4988205;28;20398;-83
2023/06/19 09:45:31;;;;;;;10.80;9.75;;;;;;;26.32;51.93;98453.56;4993276;28;20490;-83
2023/06/19 09:47:57;;;;;;;11.32;10.32;;;;;;;26.55;51.88;98448.94;4989765;28;20053;-83
2023/06/19 09:50:27;;;;;;;14.07;9.88;;;;;;;26.43;52.08;98456.53;4958100;28;20725;-83
2023/06/19 09:52:55;;;;;;;11.75;9.60;;;;;;;27.01;51.16;98459.94;4983695;28;20426;-83
2023/06/19 09:55:24;;;;;;;10.77;9.73;;;;;;;27.10;51.11;98452.28;4985875;28;20038;-83
2023/06/19 09:57:51;;;;;;;10.80;9.80;;;;;;;27.19;51.44;98447.34;4987689;28;20033;-83
2023/06/19 10:00:21;;;;;;;10.77;9.68;;;;;;;27.28;51.10;98451.41;4991908;28;20459;-83
2023/06/19 10:02:48;;;;;;;12.55;10.55;;;;;;;27.31;52.84;98458.91;4975322;28;20026;-83
2023/06/19 10:05:14;;;;;;;11.27;9.50;;;;;;;27.14;51.38;98453.94;4990018;28;20498;-83
2023/06/19 10:07:45;;;;;;;12.30;9.82;;;;;;;27.48;52.36;98456.84;4989866;28;20054;-83
2023/06/19 10:10:27;;;;;;;10.73;9.05;;;;;;;27.66;50.06;98442.22;4974605;28;20042;-83
2023/06/19 10:12:55;;;;;;;11.75;10.52;;;;;;;27.88;51.53;98455.06;4988076;28;20438;-84
2023/06/19 10:15:26;;;;;;;9.85;8.95;;;;;;;27.91;49.61;98446.09;4990117;28;20478;-83
2023/06/19 10:17:59;;;;;;;11.57;10.48;;;;;;;28.23;49.11;98460.25;4992080;28;20076;-83
2023/06/19 10:20:35;;;;;;;11.60;10.27;;;;;;;28.36;49.16;98466.25;4992238;28;20109;-83
2023/06/19 10:23:21;;;;;;;10.65;9.68;;;;;;;28.52;48.42;98459.41;4975363;28;20042;-84
2023/06/19 10:26:07;;;;;;;;;;;;;;;28.50;49.91;98463.69;4981733;28;20085;-83
2023/06/19 10:28:34;;;;;;;11.10;10.00;;;;;;;28.56;48.32;98457.50;4985277;28;20259;-84
2023/06/19 10:31:02;;;;;;;10.32;9.23;;;;;;;28.50;48.50;98450.75;4984437;28;20030;-83
2023/06/19 10:33:32;;;;;;;12.05;10.85;;;;;;;28.54;49.07;98451.59;4984451;28;20463;-84
2023/06/19 10:36:00;;;;;;;13.13;11.68;;;;;;;28.54;48.70;98439.81;4990994;28;20110;-84
2023/06/19 10:38:26;;;;;;;10.75;9.63;;;;;;;28.55;48.39;98442.16;4985633;28;20034;-83
2023/06/19 10:40:51;;;;;;;10.77;9.88;;;;;;;28.55;48.67;98455.13;4986260;28;20395;-83
2023/06/19 10:43:25;;;;;;;10.93;9.75;;;;;;;28.43;48.65;98458.13;4981762;28;20031;-83
2023/06/19 10:45:53;;;;;;;14.88;11.20;;;;;;;28.26;50.28;98451.28;4990185;28;20037;-83
2023/06/19 10:48:20;;;;;;;12.20;10.82;;;;;;;28.31;48.45;98445.41;4991414;28;20032;-83
2023/06/19 10:50:47;;;;;;;12.38;11.07;;;;;;;28.24;49.43;98452.81;4983401;28;20027;-82
2023/06/19 10:53:23;;;;;;;12.32;11.07;;;;;;;28.53;49.23;98440.94;4983564;28;20086;-84
2023/06/19 10:55:48;;;;;;;13.35;11.43;;;;;;;28.03;48.52;98440.38;4982821;28;20073;-83
2023/06/19 10:58:13;;;;;;;10.68;9.57;;;;;;;28.34;49.29;98439.19;4984967;28;20054;-83
2023/06/19 11:00:39;;;;;;;11.18;9.85;;;;;;;28.95;49.09;98435.91;4988107;28;20530;-83
2023/06/19 11:03:05;;;;;;;11.60;10.32;;;;;;;29.02;47.87;98432.44;4984722;28;20081;-84
2023/06/19 11:05:30;;;;;;;11.75;9.20;;;;;;;29.10;47.44;98445.84;4988991;28;20038;-84
2023/06/19 11:07:57;;;;;;;11.48;10.27;;;;;;;28.68;47.78;98431.75;4986097;28;20054;-83
2023/06/19 11:10:25;;;;;;;12.25;11.15;;;;;;;28.42;47.82;98434.59;4985060;28;20101;-83
2023/06/19 11:12:54;;;;;;;14.65;10.90;;;;;;;28.33;48.68;98445.06;4981505;28;20118;-83
2023/06/19 11:15:27;;;;;;;9.93;8.95;;;;;;;28.99;48.76;98442.22;4981570;28;20042;-83
2023/06/19 11:17:52;;;;;;;11.90;9.77;;;;;;;29.34;48.86;98431.53;4971484;28;20042;-84
2023/06/19 11:20:18;;;;;;;12.00;10.48;;;;;;;29.44;50.39;98444.56;4998864;28;20031;-84
2023/06/19 11:22:44;;;;;;;11.23;10.15;;;;;;;29.65;47.15;98430.19;4990025;28;20037;-83